sensor_id;sensor_type;location;lat;lon;timestamp;temperature;humidity
74224;SHT31;62585;49.706;18.216;2022-11-20T00:01:22;-1.10;79.80
74224;SHT31;62585;49.706;18.216;2022-11-20T00:03:50;-1.13;79.88
74224;SHT31;62585;49.706;18.216;2022-11-20T00:06:17;-1.19;79.79
74224;SHT31;62585;49.706;18.216;2022-11-20T00:08:44;-1.23;79.91
74224;SHT31;62585;49.706;18.216;2022-11-20T00:11:15;-1.20;80.09
74224;SHT31;62585;49.706;18.216;2022-11-20T00:13:42;-1.25;79.93
74224;SHT31;62585;49.706;18.216;2022-11-20T00:16:10;-1.25;79.83
74224;SHT31;62585;49.706;18.216;2022-11-20T00:18:36;-1.30;79.97
74224;SHT31;62585;49.706;18.216;2022-11-20T00:21:09;-1.35;79.37
74224;SHT31;62585;49.706;18.216;2022-11-20T00:23:35;-1.33;78.86
74224;SHT31;62585;49.706;18.216;2022-11-20T00:26:09;-1.37;78.20
74224;SHT31;62585;49.706;18.216;2022-11-20T00:28:35;-1.37;78.49
74224;SHT31;62585;49.706;18.216;2022-11-20T00:31:06;-1.30;78.37
74224;SHT31;62585;49.706;18.216;2022-11-20T00:33:33;-1.29;78.59
74224;SHT31;62585;49.706;18.216;2022-11-20T00:36:08;-1.37;78.94
74224;SHT31;62585;49.706;18.216;2022-11-20T00:38:35;-1.35;79.08
74224;SHT31;62585;49.706;18.216;2022-11-20T00:41:03;-1.44;79.53
74224;SHT31;62585;49.706;18.216;2022-11-20T00:43:29;-1.51;79.55
74224;SHT31;62585;49.706;18.216;2022-11-20T00:45:58;-1.57;79.05
74224;SHT31;62585;49.706;18.216;2022-11-20T00:48:24;-1.63;78.86
74224;SHT31;62585;49.706;18.216;2022-11-20T00:50:50;-1.58;78.77
74224;SHT31;62585;49.706;18.216;2022-11-20T00:53:16;-1.57;78.37
74224;SHT31;62585;49.706;18.216;2022-11-20T00:55:42;-1.58;78.44
74224;SHT31;62585;49.706;18.216;2022-11-20T00:58:07;-1.57;78.65
74224;SHT31;62585;49.706;18.216;2022-11-20T01:00:33;-1.70;79.10
74224;SHT31;62585;49.706;18.216;2022-11-20T01:02:59;-1.71;79.50
74224;SHT31;62585;49.706;18.216;2022-11-20T01:05:25;-1.67;79.42
74224;SHT31;62585;49.706;18.216;2022-11-20T01:07:51;-1.67;78.89
74224;SHT31;62585;49.706;18.216;2022-11-20T01:10:16;-1.72;78.88
74224;SHT31;62585;49.706;18.216;2022-11-20T01:12:42;-1.72;78.73
74224;SHT31;62585;49.706;18.216;2022-11-20T01:15:08;-1.75;78.92
74224;SHT31;62585;49.706;18.216;2022-11-20T01:17:34;-1.75;78.93
74224;SHT31;62585;49.706;18.216;2022-11-20T01:20:00;-1.79;79.20
74224;SHT31;62585;49.706;18.216;2022-11-20T01:22:26;-1.81;79.23
74224;SHT31;62585;49.706;18.216;2022-11-20T01:24:51;-1.81;79.25
74224;SHT31;62585;49.706;18.216;2022-11-20T01:27:17;-1.84;79.59
74224;SHT31;62585;49.706;18.216;2022-11-20T01:29:43;-1.89;79.64
74224;SHT31;62585;49.706;18.216;2022-11-20T01:32:08;-1.88;79.88
74224;SHT31;62585;49.706;18.216;2022-11-20T01:34:34;-1.87;79.67
74224;SHT31;62585;49.706;18.216;2022-11-20T01:37:00;-1.97;79.65
74224;SHT31;62585;49.706;18.216;2022-11-20T01:39:26;-1.94;79.88
74224;SHT31;62585;49.706;18.216;2022-11-20T01:41:53;-1.91;79.91
74224;SHT31;62585;49.706;18.216;2022-11-20T01:47:37;-2.01;80.39
74224;SHT31;62585;49.706;18.216;2022-11-20T01:52:45;-2.06;80.83
74224;SHT31;62585;49.706;18.216;2022-11-20T01:55:20;-2.08;80.79
74224;SHT31;62585;49.706;18.216;2022-11-20T01:57:48;-2.15;80.80
74224;SHT31;62585;49.706;18.216;2022-11-20T02:00:17;-2.22;80.97
74224;SHT31;62585;49.706;18.216;2022-11-20T02:02:50;-2.23;81.83
74224;SHT31;62585;49.706;18.216;2022-11-20T02:05:27;-2.19;82.19
74224;SHT31;62585;49.706;18.216;2022-11-20T02:07:56;-2.15;81.75
74224;SHT31;62585;49.706;18.216;2022-11-20T02:10:22;-2.18;82.32
74224;SHT31;62585;49.706;18.216;2022-11-20T02:12:48;-2.18;82.48
74224;SHT31;62585;49.706;18.216;2022-11-20T02:15:33;-2.18;82.17
74224;SHT31;62585;49.706;18.216;2022-11-20T02:17:59;-2.22;82.17
74224;SHT31;62585;49.706;18.216;2022-11-20T02:20:25;-2.18;82.22
74224;SHT31;62585;49.706;18.216;2022-11-20T02:23:00;-2.16;82.46
74224;SHT31;62585;49.706;18.216;2022-11-20T02:25:30;-2.13;82.61
74224;SHT31;62585;49.706;18.216;2022-11-20T02:27:56;-2.19;82.37
74224;SHT31;62585;49.706;18.216;2022-11-20T02:30:22;-2.23;82.06
74224;SHT31;62585;49.706;18.216;2022-11-20T02:32:48;-2.28;82.29
74224;SHT31;62585;49.706;18.216;2022-11-20T02:37:51;-2.28;81.96
74224;SHT31;62585;49.706;18.216;2022-11-20T02:40:18;-2.29;81.61
74224;SHT31;62585;49.706;18.216;2022-11-20T02:42:44;-2.37;82.68
74224;SHT31;62585;49.706;18.216;2022-11-20T02:45:10;-2.33;83.05
74224;SHT31;62585;49.706;18.216;2022-11-20T02:47:36;-2.30;83.13
74224;SHT31;62585;49.706;18.216;2022-11-20T02:50:03;-2.23;83.28
74224;SHT31;62585;49.706;18.216;2022-11-20T02:52:30;-2.25;83.02
74224;SHT31;62585;49.706;18.216;2022-11-20T02:54:55;-2.23;83.37
74224;SHT31;62585;49.706;18.216;2022-11-20T02:57:21;-2.28;83.86
74224;SHT31;62585;49.706;18.216;2022-11-20T02:59:47;-2.29;83.99
74224;SHT31;62585;49.706;18.216;2022-11-20T03:02:13;-2.26;83.98
74224;SHT31;62585;49.706;18.216;2022-11-20T03:04:38;-2.25;84.05
74224;SHT31;62585;49.706;18.216;2022-11-20T03:07:04;-2.18;83.86
74224;SHT31;62585;49.706;18.216;2022-11-20T03:09:30;-2.12;83.91
74224;SHT31;62585;49.706;18.216;2022-11-20T03:11:56;-2.15;83.70
74224;SHT31;62585;49.706;18.216;2022-11-20T03:14:22;-2.09;83.72
74224;SHT31;62585;49.706;18.216;2022-11-20T03:16:47;-2.10;84.22
74224;SHT31;62585;49.706;18.216;2022-11-20T03:19:13;-2.03;84.04
74224;SHT31;62585;49.706;18.216;2022-11-20T03:21:39;-2.02;84.09
74224;SHT31;62585;49.706;18.216;2022-11-20T03:24:05;-1.99;83.95
74224;SHT31;62585;49.706;18.216;2022-11-20T03:26:31;-2.02;83.97
74224;SHT31;62585;49.706;18.216;2022-11-20T03:28:59;-1.99;83.88
74224;SHT31;62585;49.706;18.216;2022-11-20T03:31:31;-1.99;83.65
74224;SHT31;62585;49.706;18.216;2022-11-20T03:33:57;-1.97;83.62
74224;SHT31;62585;49.706;18.216;2022-11-20T03:36:25;-1.99;83.37
74224;SHT31;62585;49.706;18.216;2022-11-20T03:38:53;-1.98;83.81
74224;SHT31;62585;49.706;18.216;2022-11-20T03:41:27;-2.03;83.61
74224;SHT31;62585;49.706;18.216;2022-11-20T03:43:56;-2.06;83.61
74224;SHT31;62585;49.706;18.216;2022-11-20T03:46:22;-2.03;83.78
74224;SHT31;62585;49.706;18.216;2022-11-20T03:48:48;-2.06;83.87
74224;SHT31;62585;49.706;18.216;2022-11-20T03:51:16;-2.02;83.77
74224;SHT31;62585;49.706;18.216;2022-11-20T03:53:44;-1.97;83.52
74224;SHT31;62585;49.706;18.216;2022-11-20T03:56:12;-1.91;83.30
74224;SHT31;62585;49.706;18.216;2022-11-20T03:58:39;-1.87;83.24
74224;SHT31;62585;49.706;18.216;2022-11-20T04:01:10;-1.81;83.55
74224;SHT31;62585;49.706;18.216;2022-11-20T04:03:37;-1.82;83.62
74224;SHT31;62585;49.706;18.216;2022-11-20T04:06:24;-1.91;84.08
74224;SHT31;62585;49.706;18.216;2022-11-20T04:08:50;-1.95;84.42
74224;SHT31;62585;49.706;18.216;2022-11-20T04:11:18;-1.87;84.14
74224;SHT31;62585;49.706;18.216;2022-11-20T04:13:49;-1.91;84.45
74224;SHT31;62585;49.706;18.216;2022-11-20T04:16:16;-1.89;84.48
74224;SHT31;62585;49.706;18.216;2022-11-20T04:18:42;-1.94;84.72
74224;SHT31;62585;49.706;18.216;2022-11-20T04:21:09;-1.95;84.88
74224;SHT31;62585;49.706;18.216;2022-11-20T04:23:35;-1.98;84.90
74224;SHT31;62585;49.706;18.216;2022-11-20T04:26:07;-1.95;84.78
74224;SHT31;62585;49.706;18.216;2022-11-20T04:28:33;-1.85;84.08
74224;SHT31;62585;49.706;18.216;2022-11-20T04:31:04;-1.82;83.64
74224;SHT31;62585;49.706;18.216;2022-11-20T04:33:30;-1.82;83.91
74224;SHT31;62585;49.706;18.216;2022-11-20T04:36:01;-1.75;84.13
74224;SHT31;62585;49.706;18.216;2022-11-20T04:38:27;-1.68;83.67
74224;SHT31;62585;49.706;18.216;2022-11-20T04:40:57;-1.64;83.32
74224;SHT31;62585;49.706;18.216;2022-11-20T04:43:22;-1.64;83.47
74224;SHT31;62585;49.706;18.216;2022-11-20T04:45:55;-1.64;83.25
74224;SHT31;62585;49.706;18.216;2022-11-20T04:48:22;-1.71;83.76
74224;SHT31;62585;49.706;18.216;2022-11-20T04:50:48;-1.75;84.31
74224;SHT31;62585;49.706;18.216;2022-11-20T04:53:13;-1.71;84.26
74224;SHT31;62585;49.706;18.216;2022-11-20T04:55:39;-1.71;84.39
74224;SHT31;62585;49.706;18.216;2022-11-20T04:58:05;-1.68;84.43
74224;SHT31;62585;49.706;18.216;2022-11-20T05:00:31;-1.70;84.49
74224;SHT31;62585;49.706;18.216;2022-11-20T05:02:57;-1.71;83.23
74224;SHT31;62585;49.706;18.216;2022-11-20T05:05:23;-1.64;82.66
74224;SHT31;62585;49.706;18.216;2022-11-20T05:07:48;-1.60;82.73
74224;SHT31;62585;49.706;18.216;2022-11-20T05:10:14;-1.56;82.34
74224;SHT31;62585;49.706;18.216;2022-11-20T05:12:40;-1.50;82.32
74224;SHT31;62585;49.706;18.216;2022-11-20T05:15:06;-1.53;82.01
74224;SHT31;62585;49.706;18.216;2022-11-20T05:17:32;-1.60;82.09
74224;SHT31;62585;49.706;18.216;2022-11-20T05:19:58;-1.57;82.14
74224;SHT31;62585;49.706;18.216;2022-11-20T05:22:24;-1.51;82.12
74224;SHT31;62585;49.706;18.216;2022-11-20T05:24:50;-1.50;82.28
74224;SHT31;62585;49.706;18.216;2022-11-20T05:27:15;-1.44;82.67
74224;SHT31;62585;49.706;18.216;2022-11-20T05:29:41;-1.42;82.80
74224;SHT31;62585;49.706;18.216;2022-11-20T05:32:07;-1.42;82.81
74224;SHT31;62585;49.706;18.216;2022-11-20T05:34:35;-1.39;82.96
74224;SHT31;62585;49.706;18.216;2022-11-20T05:37:02;-1.36;83.21
74224;SHT31;62585;49.706;18.216;2022-11-20T05:39:28;-1.40;83.65
74224;SHT31;62585;49.706;18.216;2022-11-20T05:41:54;-1.47;84.02
74224;SHT31;62585;49.706;18.216;2022-11-20T05:44:38;-1.46;84.20
74224;SHT31;62585;49.706;18.216;2022-11-20T05:47:05;-1.43;83.53
74224;SHT31;62585;49.706;18.216;2022-11-20T05:49:31;-1.39;82.96
74224;SHT31;62585;49.706;18.216;2022-11-20T05:51:57;-1.37;82.89
74224;SHT31;62585;49.706;18.216;2022-11-20T05:54:23;-1.32;82.77
74224;SHT31;62585;49.706;18.216;2022-11-20T05:56:48;-1.33;83.27
74224;SHT31;62585;49.706;18.216;2022-11-20T05:59:14;-1.28;83.34
74224;SHT31;62585;49.706;18.216;2022-11-20T06:01:40;-1.28;83.25
74224;SHT31;62585;49.706;18.216;2022-11-20T06:04:05;-1.26;83.60
74224;SHT31;62585;49.706;18.216;2022-11-20T06:06:31;-1.23;83.80
74224;SHT31;62585;49.706;18.216;2022-11-20T06:08:57;-1.28;83.54
74224;SHT31;62585;49.706;18.216;2022-11-20T06:11:24;-1.35;84.29
74224;SHT31;62585;49.706;18.216;2022-11-20T06:13:50;-1.36;83.61
74224;SHT31;62585;49.706;18.216;2022-11-20T06:16:18;-1.28;83.78
74224;SHT31;62585;49.706;18.216;2022-11-20T06:18:45;-1.17;83.60
74224;SHT31;62585;49.706;18.216;2022-11-20T06:21:14;-1.20;83.59
74224;SHT31;62585;49.706;18.216;2022-11-20T06:23:40;-1.15;83.34
74224;SHT31;62585;49.706;18.216;2022-11-20T06:26:08;-1.22;82.95
74224;SHT31;62585;49.706;18.216;2022-11-20T06:28:35;-1.16;83.11
74224;SHT31;62585;49.706;18.216;2022-11-20T06:31:01;-1.09;82.78
74224;SHT31;62585;49.706;18.216;2022-11-20T06:33:27;-1.06;82.58
74224;SHT31;62585;49.706;18.216;2022-11-20T06:35:56;-1.02;82.71
74224;SHT31;62585;49.706;18.216;2022-11-20T06:38:24;-0.98;82.01
74224;SHT31;62585;49.706;18.216;2022-11-20T06:40:49;-0.96;82.43
74224;SHT31;62585;49.706;18.216;2022-11-20T06:43:15;-0.96;82.20
74224;SHT31;62585;49.706;18.216;2022-11-20T06:45:41;-0.99;82.27
74224;SHT31;62585;49.706;18.216;2022-11-20T06:48:07;-1.08;82.39
74224;SHT31;62585;49.706;18.216;2022-11-20T06:50:32;-0.99;82.42
74224;SHT31;62585;49.706;18.216;2022-11-20T06:53:01;-0.92;81.26
74224;SHT31;62585;49.706;18.216;2022-11-20T06:55:28;-0.95;80.70
74224;SHT31;62585;49.706;18.216;2022-11-20T06:57:53;-0.99;79.87
74224;SHT31;62585;49.706;18.216;2022-11-20T07:00:19;-1.05;80.14
74224;SHT31;62585;49.706;18.216;2022-11-20T07:02:45;-1.06;79.77
74224;SHT31;62585;49.706;18.216;2022-11-20T07:05:11;-1.01;80.30
74224;SHT31;62585;49.706;18.216;2022-11-20T07:07:36;-0.93;79.94
74224;SHT31;62585;49.706;18.216;2022-11-20T07:10:02;-0.93;79.16
74224;SHT31;62585;49.706;18.216;2022-11-20T07:12:28;-0.95;79.48
74224;SHT31;62585;49.706;18.216;2022-11-20T07:14:54;-0.96;79.74
74224;SHT31;62585;49.706;18.216;2022-11-20T07:17:20;-0.98;80.62
74224;SHT31;62585;49.706;18.216;2022-11-20T07:19:46;-0.95;81.08
74224;SHT31;62585;49.706;18.216;2022-11-20T07:22:12;-0.88;80.16
74224;SHT31;62585;49.706;18.216;2022-11-20T07:24:38;-0.89;80.01
74224;SHT31;62585;49.706;18.216;2022-11-20T07:27:04;-0.88;80.33
74224;SHT31;62585;49.706;18.216;2022-11-20T07:29:30;-0.84;80.10
74224;SHT31;62585;49.706;18.216;2022-11-20T07:31:56;-0.75;80.16
74224;SHT31;62585;49.706;18.216;2022-11-20T07:34:22;-0.80;79.64
74224;SHT31;62585;49.706;18.216;2022-11-20T07:36:48;-0.70;79.91
74224;SHT31;62585;49.706;18.216;2022-11-20T07:39:14;-0.64;79.69
74224;SHT31;62585;49.706;18.216;2022-11-20T07:41:40;-0.64;79.77
74224;SHT31;62585;49.706;18.216;2022-11-20T07:44:06;-0.63;79.46
74224;SHT31;62585;49.706;18.216;2022-11-20T07:46:32;-0.61;77.74
74224;SHT31;62585;49.706;18.216;2022-11-20T07:48:58;-0.58;77.55
74224;SHT31;62585;49.706;18.216;2022-11-20T07:51:24;-0.60;76.41
74224;SHT31;62585;49.706;18.216;2022-11-20T07:53:52;-0.57;77.04
74224;SHT31;62585;49.706;18.216;2022-11-20T07:56:18;-0.58;77.72
74224;SHT31;62585;49.706;18.216;2022-11-20T07:58:43;-0.56;76.90
74224;SHT31;62585;49.706;18.216;2022-11-20T08:01:10;-0.57;76.10
74224;SHT31;62585;49.706;18.216;2022-11-20T08:03:36;-0.44;75.49
74224;SHT31;62585;49.706;18.216;2022-11-20T08:06:03;-0.43;75.65
74224;SHT31;62585;49.706;18.216;2022-11-20T08:08:30;-0.45;75.27
74224;SHT31;62585;49.706;18.216;2022-11-20T08:10:58;-0.36;75.16
74224;SHT31;62585;49.706;18.216;2022-11-20T08:13:44;-0.30;74.59
74224;SHT31;62585;49.706;18.216;2022-11-20T08:16:28;-0.41;75.45
74224;SHT31;62585;49.706;18.216;2022-11-20T08:18:54;-0.36;75.86
74224;SHT31;62585;49.706;18.216;2022-11-20T08:21:20;-0.23;75.22
74224;SHT31;62585;49.706;18.216;2022-11-20T08:23:46;-0.30;74.49
74224;SHT31;62585;49.706;18.216;2022-11-20T08:26:12;-0.44;74.55
74224;SHT31;62585;49.706;18.216;2022-11-20T08:28:40;-0.44;74.75
74224;SHT31;62585;49.706;18.216;2022-11-20T08:31:06;-0.43;75.34
74224;SHT31;62585;49.706;18.216;2022-11-20T08:33:31;-0.50;75.60
74224;SHT31;62585;49.706;18.216;2022-11-20T08:36:05;-0.38;75.14
74224;SHT31;62585;49.706;18.216;2022-11-20T08:38:31;-0.40;75.42
74224;SHT31;62585;49.706;18.216;2022-11-20T08:41:02;-0.47;75.76
74224;SHT31;62585;49.706;18.216;2022-11-20T08:43:47;-0.30;76.39
74224;SHT31;62585;49.706;18.216;2022-11-20T08:46:13;-0.27;76.21
74224;SHT31;62585;49.706;18.216;2022-11-20T08:48:39;-0.27;76.75
74224;SHT31;62585;49.706;18.216;2022-11-20T08:51:05;-0.09;76.46
74224;SHT31;62585;49.706;18.216;2022-11-20T08:53:30;-0.06;75.64
74224;SHT31;62585;49.706;18.216;2022-11-20T08:55:57;-0.06;75.94
74224;SHT31;62585;49.706;18.216;2022-11-20T08:58:23;-0.06;75.45
74224;SHT31;62585;49.706;18.216;2022-11-20T09:00:49;-0.10;75.53
74224;SHT31;62585;49.706;18.216;2022-11-20T09:03:14;-0.12;75.75
74224;SHT31;62585;49.706;18.216;2022-11-20T09:05:40;0.01;76.10
74224;SHT31;62585;49.706;18.216;2022-11-20T09:08:06;0.01;74.81
74224;SHT31;62585;49.706;18.216;2022-11-20T09:10:32;0.16;75.42
74224;SHT31;62585;49.706;18.216;2022-11-20T09:12:58;0.26;74.90
74224;SHT31;62585;49.706;18.216;2022-11-20T09:15:25;0.42;74.54
74224;SHT31;62585;49.706;18.216;2022-11-20T09:20:17;0.59;73.46
74224;SHT31;62585;49.706;18.216;2022-11-20T09:22:43;0.33;74.19
74224;SHT31;62585;49.706;18.216;2022-11-20T09:25:09;0.54;74.11
74224;SHT31;62585;49.706;18.216;2022-11-20T09:27:35;0.57;73.66
74224;SHT31;62585;49.706;18.216;2022-11-20T09:30:02;0.60;73.65
74224;SHT31;62585;49.706;18.216;2022-11-20T09:32:28;0.64;73.99
74224;SHT31;62585;49.706;18.216;2022-11-20T09:34:53;0.81;73.42
74224;SHT31;62585;49.706;18.216;2022-11-20T09:37:19;0.83;73.68
74224;SHT31;62585;49.706;18.216;2022-11-20T09:39:45;0.88;73.45
74224;SHT31;62585;49.706;18.216;2022-11-20T09:42:43;1.08;73.53
74224;SHT31;62585;49.706;18.216;2022-11-20T09:45:31;1.17;72.94
74224;SHT31;62585;49.706;18.216;2022-11-20T09:48:18;1.11;73.36
74224;SHT31;62585;49.706;18.216;2022-11-20T09:51:00;1.22;74.30
74224;SHT31;62585;49.706;18.216;2022-11-20T09:56:08;1.48;73.87
74224;SHT31;62585;49.706;18.216;2022-11-20T09:58:41;1.09;74.75
74224;SHT31;62585;49.706;18.216;2022-11-20T10:01:19;1.19;74.84
74224;SHT31;62585;49.706;18.216;2022-11-20T10:04:03;1.21;75.06
74224;SHT31;62585;49.706;18.216;2022-11-20T10:06:37;1.32;74.69
74224;SHT31;62585;49.706;18.216;2022-11-20T10:09:18;1.56;74.50
74224;SHT31;62585;49.706;18.216;2022-11-20T10:17:19;2.13;72.75
74224;SHT31;62585;49.706;18.216;2022-11-20T10:25:37;2.25;72.98
74224;SHT31;62585;49.706;18.216;2022-11-20T10:31:01;2.39;72.08
74224;SHT31;62585;49.706;18.216;2022-11-20T10:33:32;2.62;71.77
74224;SHT31;62585;49.706;18.216;2022-11-20T10:36:17;3.30;70.23
74224;SHT31;62585;49.706;18.216;2022-11-20T10:39:01;3.03;69.25
74224;SHT31;62585;49.706;18.216;2022-11-20T10:41:33;2.72;71.21
74224;SHT31;62585;49.706;18.216;2022-11-20T10:44:10;2.31;72.38
74224;SHT31;62585;49.706;18.216;2022-11-20T10:46:43;2.24;73.31
74224;SHT31;62585;49.706;18.216;2022-11-20T10:49:17;2.32;72.73
74224;SHT31;62585;49.706;18.216;2022-11-20T10:52:19;2.32;72.37
74224;SHT31;62585;49.706;18.216;2022-11-20T10:54:47;2.83;71.83
74224;SHT31;62585;49.706;18.216;2022-11-20T10:57:17;4.17;68.88
74224;SHT31;62585;49.706;18.216;2022-11-20T11:00:00;4.17;66.93
74224;SHT31;62585;49.706;18.216;2022-11-20T11:02:48;4.56;65.13
74224;SHT31;62585;49.706;18.216;2022-11-20T11:08:03;2.53;70.93
74224;SHT31;62585;49.706;18.216;2022-11-20T11:11:01;2.27;71.76
74224;SHT31;62585;49.706;18.216;2022-11-20T11:13:30;2.10;72.95
74224;SHT31;62585;49.706;18.216;2022-11-20T11:15:56;1.98;73.13
74224;SHT31;62585;49.706;18.216;2022-11-20T11:18:27;1.96;73.53
74224;SHT31;62585;49.706;18.216;2022-11-20T11:21:03;1.81;74.21
74224;SHT31;62585;49.706;18.216;2022-11-20T11:23:36;1.66;74.81
74224;SHT31;62585;49.706;18.216;2022-11-20T11:26:05;1.79;74.44
74224;SHT31;62585;49.706;18.216;2022-11-20T11:28:32;2.11;73.79
74224;SHT31;62585;49.706;18.216;2022-11-20T11:30:58;2.53;72.85
74224;SHT31;62585;49.706;18.216;2022-11-20T11:33:27;3.22;70.84
74224;SHT31;62585;49.706;18.216;2022-11-20T11:35:58;4.40;67.13
74224;SHT31;62585;49.706;18.216;2022-11-20T11:38:39;4.71;65.48
74224;SHT31;62585;49.706;18.216;2022-11-20T11:41:09;6.19;61.34
74224;SHT31;62585;49.706;18.216;2022-11-20T11:43:37;7.05;57.05
74224;SHT31;62585;49.706;18.216;2022-11-20T11:46:31;7.77;54.61
74224;SHT31;62585;49.706;18.216;2022-11-20T11:49:00;8.41;53.45
74224;SHT31;62585;49.706;18.216;2022-11-20T11:52:17;9.33;51.67
74224;SHT31;62585;49.706;18.216;2022-11-20T11:54:23;9.58;50.09
74224;SHT31;62585;49.706;18.216;2022-11-20T11:56:51;7.53;55.78
74224;SHT31;62585;49.706;18.216;2022-11-20T11:59:28;6.79;58.37
74224;SHT31;62585;49.706;18.216;2022-11-20T12:02:02;5.00;63.32
74224;SHT31;62585;49.706;18.216;2022-11-20T12:04:54;4.18;67.61
74224;SHT31;62585;49.706;18.216;2022-11-20T12:07:42;4.08;68.64
74224;SHT31;62585;49.706;18.216;2022-11-20T12:10:17;3.76;69.72
74224;SHT31;62585;49.706;18.216;2022-11-20T12:12:45;3.46;71.38
74224;SHT31;62585;49.706;18.216;2022-11-20T12:15:25;3.27;71.39
74224;SHT31;62585;49.706;18.216;2022-11-20T12:17:52;3.22;72.26
74224;SHT31;62585;49.706;18.216;2022-11-20T12:20:17;2.96;72.84
74224;SHT31;62585;49.706;18.216;2022-11-20T12:23:21;3.08;72.35
74224;SHT31;62585;49.706;18.216;2022-11-20T12:25:53;3.04;72.64
74224;SHT31;62585;49.706;18.216;2022-11-20T12:28:48;3.28;71.96
74224;SHT31;62585;49.706;18.216;2022-11-20T12:36:30;5.01;66.07
74224;SHT31;62585;49.706;18.216;2022-11-20T12:42:08;4.48;67.72
74224;SHT31;62585;49.706;18.216;2022-11-20T12:45:11;4.87;66.70
74224;SHT31;62585;49.706;18.216;2022-11-20T12:56:52;3.69;71.49
74224;SHT31;62585;49.706;18.216;2022-11-20T12:59:50;4.07;70.05
74224;SHT31;62585;49.706;18.216;2022-11-20T13:05:10;3.70;70.61
74224;SHT31;62585;49.706;18.216;2022-11-20T13:07:40;3.68;71.62
74224;SHT31;62585;49.706;18.216;2022-11-20T13:10:16;4.17;69.80
74224;SHT31;62585;49.706;18.216;2022-11-20T13:12:48;3.85;71.25
74224;SHT31;62585;49.706;18.216;2022-11-20T13:15:26;3.85;70.92
74224;SHT31;62585;49.706;18.216;2022-11-20T13:18:02;3.62;72.53
74224;SHT31;62585;49.706;18.216;2022-11-20T13:20:29;3.10;74.11
74224;SHT31;62585;49.706;18.216;2022-11-20T13:22:57;2.77;75.49
74224;SHT31;62585;49.706;18.216;2022-11-20T13:25:31;2.57;76.21
74224;SHT31;62585;49.706;18.216;2022-11-20T13:28:44;2.50;76.75
74224;SHT31;62585;49.706;18.216;2022-11-20T13:30:51;2.57;77.00
74224;SHT31;62585;49.706;18.216;2022-11-20T13:36:07;2.53;76.97
74224;SHT31;62585;49.706;18.216;2022-11-20T13:38:53;2.32;77.58
74224;SHT31;62585;49.706;18.216;2022-11-20T13:41:34;2.18;78.16
74224;SHT31;62585;49.706;18.216;2022-11-20T13:44:23;2.29;78.00
74224;SHT31;62585;49.706;18.216;2022-11-20T13:46:49;2.15;78.88
74224;SHT31;62585;49.706;18.216;2022-11-20T13:49:38;2.28;78.51
74224;SHT31;62585;49.706;18.216;2022-11-20T13:52:31;2.20;79.05
74224;SHT31;62585;49.706;18.216;2022-11-20T13:55:35;2.27;79.14
74224;SHT31;62585;49.706;18.216;2022-11-20T13:58:20;2.29;79.15
74224;SHT31;62585;49.706;18.216;2022-11-20T14:03:35;2.22;79.17
74224;SHT31;62585;49.706;18.216;2022-11-20T14:06:04;2.15;79.42
74224;SHT31;62585;49.706;18.216;2022-11-20T14:08:48;2.22;79.16
74224;SHT31;62585;49.706;18.216;2022-11-20T14:11:18;2.27;78.93
74224;SHT31;62585;49.706;18.216;2022-11-20T14:14:00;2.24;79.14
74224;SHT31;62585;49.706;18.216;2022-11-20T14:16:28;2.14;79.61
74224;SHT31;62585;49.706;18.216;2022-11-20T14:18:55;2.18;79.60
74224;SHT31;62585;49.706;18.216;2022-11-20T14:21:30;2.15;79.96
74224;SHT31;62585;49.706;18.216;2022-11-20T14:24:06;2.10;80.09
74224;SHT31;62585;49.706;18.216;2022-11-20T14:26:32;2.20;80.35
74224;SHT31;62585;49.706;18.216;2022-11-20T14:28:59;2.29;80.38
74224;SHT31;62585;49.706;18.216;2022-11-20T14:31:26;2.38;80.28
74224;SHT31;62585;49.706;18.216;2022-11-20T14:33:54;2.38;80.73
74224;SHT31;62585;49.706;18.216;2022-11-20T14:36:23;2.41;80.18
74224;SHT31;62585;49.706;18.216;2022-11-20T14:38:50;2.42;80.42
74224;SHT31;62585;49.706;18.216;2022-11-20T14:41:20;2.41;80.33
74224;SHT31;62585;49.706;18.216;2022-11-20T14:43:51;2.24;80.76
74224;SHT31;62585;49.706;18.216;2022-11-20T14:46:18;2.18;81.10
74224;SHT31;62585;49.706;18.216;2022-11-20T14:48:46;1.97;81.69
74224;SHT31;62585;49.706;18.216;2022-11-20T14:51:27;1.80;82.01
74224;SHT31;62585;49.706;18.216;2022-11-20T14:53:53;1.80;81.96
74224;SHT31;62585;49.706;18.216;2022-11-20T14:56:23;1.79;82.00
74224;SHT31;62585;49.706;18.216;2022-11-20T14:58:56;1.77;82.13
74224;SHT31;62585;49.706;18.216;2022-11-20T15:01:27;1.74;82.02
74224;SHT31;62585;49.706;18.216;2022-11-20T15:04:20;1.53;82.52
74224;SHT31;62585;49.706;18.216;2022-11-20T15:06:51;1.62;82.22
74224;SHT31;62585;49.706;18.216;2022-11-20T15:09:17;1.66;82.63
74224;SHT31;62585;49.706;18.216;2022-11-20T15:11:54;1.60;82.11
74224;SHT31;62585;49.706;18.216;2022-11-20T15:14:20;1.59;81.90
74224;SHT31;62585;49.706;18.216;2022-11-20T15:16:46;1.46;82.06
74224;SHT31;62585;49.706;18.216;2022-11-20T15:19:18;1.12;83.03
74224;SHT31;62585;49.706;18.216;2022-11-20T15:21:44;0.97;84.13
74224;SHT31;62585;49.706;18.216;2022-11-20T15:24:10;0.90;84.26
74224;SHT31;62585;49.706;18.216;2022-11-20T15:26:37;0.90;84.27
74224;SHT31;62585;49.706;18.216;2022-11-20T15:29:10;0.76;84.76
74224;SHT31;62585;49.706;18.216;2022-11-20T15:31:37;0.70;85.27
74224;SHT31;62585;49.706;18.216;2022-11-20T15:34:11;0.54;85.48
74224;SHT31;62585;49.706;18.216;2022-11-20T15:36:39;0.53;85.68
74224;SHT31;62585;49.706;18.216;2022-11-20T15:39:05;0.50;86.03
74224;SHT31;62585;49.706;18.216;2022-11-20T15:41:36;0.45;86.32
74224;SHT31;62585;49.706;18.216;2022-11-20T15:44:03;0.28;86.69
74224;SHT31;62585;49.706;18.216;2022-11-20T15:46:39;0.28;86.97
74224;SHT31;62585;49.706;18.216;2022-11-20T15:49:15;0.42;86.63
74224;SHT31;62585;49.706;18.216;2022-11-20T15:51:47;0.48;86.77
74224;SHT31;62585;49.706;18.216;2022-11-20T15:54:18;0.50;86.53
74224;SHT31;62585;49.706;18.216;2022-11-20T15:56:49;0.39;86.85
74224;SHT31;62585;49.706;18.216;2022-11-20T15:59:17;0.45;87.31
74224;SHT31;62585;49.706;18.216;2022-11-20T16:01:43;0.39;87.54
74224;SHT31;62585;49.706;18.216;2022-11-20T16:04:14;0.48;87.55
74224;SHT31;62585;49.706;18.216;2022-11-20T16:06:41;0.43;87.66
74224;SHT31;62585;49.706;18.216;2022-11-20T16:09:06;0.36;88.12
74224;SHT31;62585;49.706;18.216;2022-11-20T16:11:33;0.56;87.56
74224;SHT31;62585;49.706;18.216;2022-11-20T16:14:05;0.57;87.27
74224;SHT31;62585;49.706;18.216;2022-11-20T16:16:50;0.59;87.78
74224;SHT31;62585;49.706;18.216;2022-11-20T16:19:16;0.50;88.15
74224;SHT31;62585;49.706;18.216;2022-11-20T16:21:43;0.53;88.54
74224;SHT31;62585;49.706;18.216;2022-11-20T16:24:12;0.70;88.23
74224;SHT31;62585;49.706;18.216;2022-11-20T16:26:39;0.85;88.00
74224;SHT31;62585;49.706;18.216;2022-11-20T16:29:05;0.85;88.03
74224;SHT31;62585;49.706;18.216;2022-11-20T16:31:31;0.81;88.07
74224;SHT31;62585;49.706;18.216;2022-11-20T16:34:00;0.87;88.20
74224;SHT31;62585;49.706;18.216;2022-11-20T16:36:27;0.87;88.20